Time;durP1;ratioP1;P1;durP2;ratioP2;P2;SDS_P1;SDS_P2;PMS_P1;PMS_P2;Temp;Humidity;BMP_temperature;BMP_pressure;BME280_temperature;BME280_humidity;BME280_pressure;Samples;Min_cycle;Max_cycle;Signal;HPM_P1;HPM_P2
2024/01/25 00:01:20;;;;;;;4.57;1.30;;;13.30;74.10;;;;;;2493651;54;20949;-68
2024/01/25 00:03:46;;;;;;;4.37;1.65;;;13.30;74.10;;;;;;2494249;54;20923;-68
2024/01/25 00:06:13;;;;;;;6.18;1.95;;;13.30;74.20;;;;;;2493179;54;20962;-67
2024/01/25 00:08:39;;;;;;;7.55;1.90;;;13.30;74.10;;;;;;2494039;54;20967;-67
2024/01/25 00:11:05;;;;;;;4.82;1.30;;;13.30;74.10;;;;;;2264654;55;20974;-67
2024/01/25 00:13:32;;;;;;;3.67;1.27;;;13.30;74.10;;;;;;2493906;54;21388;-67
2024/01/25 00:15:59;;;;;;;4.55;1.33;;;13.30;74.20;;;;;;2494028;54;20935;-68
2024/01/25 00:18:26;;;;;;;4.68;1.10;;;13.30;74.30;;;;;;2494715;54;20986;-68
2024/01/25 00:20:52;;;;;;;5.10;0.95;;;13.30;74.40;;;;;;2265042;55;20951;-68
2024/01/25 00:23:18;;;;;;;7.47;1.40;;;13.40;74.60;;;;;;2264726;55;20944;-68
2024/01/25 00:25:45;;;;;;;5.20;1.17;;;13.40;74.70;;;;;;2264432;55;20951;-68
2024/01/25 00:28:12;;;;;;;3.80;0.98;;;13.40;74.70;;;;;;2264466;55;20971;-67
2024/01/25 00:30:39;;;;;;;2.83;1.10;;;13.40;74.80;;;;;;2493811;54;20943;-68
2024/01/25 00:33:05;;;;;;;4.85;0.98;;;13.40;74.90;;;;;;2493405;54;20999;-68
2024/01/25 00:35:32;;;;;;;5.07;1.25;;;13.50;75.00;;;;;;2263984;55;21013;-67
2024/01/25 00:38:00;;;;;;;4.82;1.02;;;13.50;75.00;;;;;;2264871;55;20963;-67
2024/01/25 00:40:26;;;;;;;4.87;1.25;;;13.50;74.90;;;;;;2257458;56;20960;-68
2024/01/25 00:42:53;;;;;;;2.80;1.08;;;13.50;74.90;;;;;;2266852;55;20989;-68
2024/01/25 00:45:20;;;;;;;3.50;1.00;;;13.50;74.90;;;;;;2483104;54;21130;-68
2024/01/25 00:47:47;;;;;;;2.70;0.82;;;13.50;74.90;;;;;;2258472;56;20992;-69
2024/01/25 00:50:14;;;;;;;3.50;1.10;;;13.60;75.00;;;;;;2263020;55;21054;-67
2024/01/25 00:52:40;;;;;;;3.12;1.00;;;13.60;75.00;;;;;;2264239;55;20930;-69
2024/01/25 00:55:07;;;;;;;3.35;1.00;;;13.60;74.90;;;;;;2264408;55;21716;-68
2024/01/25 00:57:34;;;;;;;5.78;1.00;;;13.60;74.90;;;;;;2493118;54;20966;-69
2024/01/25 01:00:00;;;;;;;2.53;1.08;;;13.60;74.90;;;;;;2494342;54;20975;-68
2024/01/25 01:02:30;;;;;;;5.00;1.00;;;13.60;74.80;;;;;;2260009;56;21544;-69
2024/01/25 01:04:58;;;;;;;5.78;1.00;;;13.70;74.90;;;;;;2261819;55;21455;-68
2024/01/25 01:07:24;;;;;;;4.18;0.90;;;13.70;74.80;;;;;;2263947;55;20977;-69
2024/01/25 01:09:51;;;;;;;4.00;0.98;;;13.70;74.80;;;;;;2255396;55;21018;-67
2024/01/25 01:12:18;;;;;;;3.83;1.08;;;13.70;74.80;;;;;;2263623;55;21473;-68
2024/01/25 01:14:44;;;;;;;3.80;1.20;;;13.70;74.70;;;;;;2256165;55;21003;-69
2024/01/25 01:17:10;;;;;;;6.68;1.12;;;13.70;74.70;;;;;;2493776;53;21105;-67
2024/01/25 01:19:39;;;;;;;2.67;1.08;;;13.70;74.70;;;;;;2263112;55;21002;-68
2024/01/25 01:22:06;;;;;;;3.40;1.05;;;13.70;74.60;;;;;;2491987;54;21006;-68
2024/01/25 01:24:33;;;;;;;3.92;0.95;;;13.70;74.60;;;;;;2262121;55;21324;-68
2024/01/25 01:27:00;;;;;;;3.30;0.82;;;13.80;74.70;;;;;;2262794;55;21001;-68
2024/01/25 01:29:27;;;;;;;2.80;0.85;;;13.80;74.80;;;;;;2257819;56;21253;-67
2024/01/25 01:31:56;;;;;;;2.37;0.88;;;13.80;74.80;;;;;;2263715;55;20973;-68
2024/01/25 01:34:24;;;;;;;2.67;1.05;;;13.80;74.60;;;;;;2263693;55;21006;-68
2024/01/25 01:36:51;;;;;;;5.28;1.20;;;13.80;74.60;;;;;;2264253;55;21447;-68
2024/01/25 01:39:17;;;;;;;3.40;1.00;;;13.80;74.60;;;;;;2492732;54;20970;-69
2024/01/25 01:41:47;;;;;;;5.68;1.10;;;13.80;74.60;;;;;;2263877;55;20954;-68
2024/01/25 01:44:14;;;;;;;4.82;1.17;;;13.80;74.50;;;;;;2493868;54;21437;-68
2024/01/25 01:46:41;;;;;;;4.18;1.10;;;13.80;74.50;;;;;;2263635;55;21848;-69
2024/01/25 01:49:11;;;;;;;5.78;1.40;;;13.90;74.60;;;;;;2264142;55;20998;-67
2024/01/25 01:51:38;;;;;;;3.42;1.15;;;13.80;74.50;;;;;;2493771;54;20990;-67
2024/01/25 01:54:06;;;;;;;5.03;1.15;;;13.80;74.50;;;;;;2494395;54;21365;-68
2024/01/25 01:56:32;;;;;;;5.45;0.90;;;13.80;74.40;;;;;;2262897;55;20999;-69
2024/01/25 01:59:02;;;;;;;5.70;1.45;;;13.80;74.50;;;;;;2263696;55;20942;-67
2024/01/25 02:01:29;;;;;;;3.45;0.90;;;13.80;74.50;;;;;;2263883;55;20922;-67
2024/01/25 02:03:56;;;;;;;4.62;1.20;;;13.80;74.50;;;;;;2493929;54;21790;-67
2024/01/25 02:06:26;;;;;;;4.85;1.08;;;13.80;74.40;;;;;;2493518;54;20963;-68
2024/01/25 02:08:58;;;;;;;4.57;0.93;;;13.90;74.30;;;;;;2264427;55;20962;-68
2024/01/25 02:11:25;;;;;;;5.00;0.95;;;13.90;74.60;;;;;;2493534;54;20982;-68
2024/01/25 02:13:51;;;;;;;3.50;0.85;;;13.90;74.50;;;;;;2264612;55;21017;-68
2024/01/25 02:16:19;;;;;;;4.75;1.00;;;13.90;74.50;;;;;;2493027;54;20954;-68
2024/01/25 02:18:47;;;;;;;4.90;0.93;;;13.90;74.60;;;;;;2493551;54;21041;-67
2024/01/25 02:21:13;;;;;;;3.87;0.80;;;13.90;74.60;;;;;;2264602;55;21090;-68
2024/01/25 02:23:39;;;;;;;4.75;0.90;;;13.90;74.50;;;;;;2264495;55;20985;-68
2024/01/25 02:26:05;;;;;;;4.28;0.90;;;13.90;74.40;;;;;;2258265;56;21712;-67
2024/01/25 02:28:35;;;;;;;4.62;0.90;;;13.90;74.30;;;;;;2483848;54;21522;-67
2024/01/25 02:31:01;;;;;;;3.05;0.90;;;13.90;74.30;;;;;;2264122;55;20990;-68
2024/01/25 02:33:28;;;;;;;3.45;0.93;;;13.90;74.30;;;;;;2258888;56;21264;-69
2024/01/25 02:35:54;;;;;;;2.72;0.80;;;13.90;74.30;;;;;;2489210;54;21789;-69
2024/01/25 02:38:21;;;;;;;3.37;0.80;;;13.90;74.30;;;;;;2264687;55;21006;-67
2024/01/25 02:40:48;;;;;;;2.42;0.60;;;13.90;74.30;;;;;;2263919;55;20961;-68
2024/01/25 02:43:15;;;;;;;2.72;0.80;;;13.90;74.30;;;;;;2257418;55;20970;-68
2024/01/25 02:45:42;;;;;;;4.22;0.70;;;13.90;74.30;;;;;;2493320;54;20966;-68
2024/01/25 02:48:08;;;;;;;3.20;0.80;;;13.90;74.30;;;;;;2265004;55;20947;-68
2024/01/25 02:50:34;;;;;;;3.85;0.70;;;13.90;74.20;;;;;;2263775;55;20959;-68
2024/01/25 02:53:03;;;;;;;3.42;0.80;;;13.90;74.10;;;;;;2264730;55;21034;-68
2024/01/25 02:55:32;;;;;;;3.80;0.90;;;13.90;74.10;;;;;;2493150;54;20966;-68
2024/01/25 02:58:01;;;;;;;4.05;0.93;;;13.90;74.10;;;;;;2264674;55;20983;-68
2024/01/25 03:00:27;;;;;;;3.87;0.85;;;13.90;74.10;;;;;;2482406;54;21033;-68
2024/01/25 03:02:54;;;;;;;3.45;1.25;;;13.90;74.10;;;;;;2263209;55;21294;-68
2024/01/25 03:05:20;;;;;;;6.18;1.80;;;13.90;74.00;;;;;;2263723;55;21038;-67
2024/01/25 03:07:47;;;;;;;6.95;2.30;;;13.90;74.00;;;;;;2264452;55;20943;-67
2024/01/25 03:10:13;;;;;;;4.25;1.73;;;13.90;74.00;;;;;;2264157;55;21019;-68
2024/01/25 03:12:39;;;;;;;4.07;1.40;;;13.90;74.00;;;;;;2264348;55;20998;-68
2024/01/25 03:15:06;;;;;;;4.78;1.65;;;13.90;74.00;;;;;;2264281;55;20934;-67
2024/01/25 03:17:33;;;;;;;4.57;1.25;;;13.80;73.80;;;;;;2493134;55;21325;-68
2024/01/25 03:19:59;;;;;;;3.25;1.10;;;13.80;73.80;;;;;;2263614;55;21050;-68
2024/01/25 03:22:26;;;;;;;2.97;0.90;;;13.80;73.80;;;;;;2491388;54;21519;-68
2024/01/25 03:24:52;;;;;;;3.10;0.90;;;13.80;74.50;;;;;;2264321;55;21301;-67
2024/01/25 03:27:22;;;;;;;4.35;0.93;;;13.80;73.80;;;;;;2484666;54;21252;-67
2024/01/25 03:29:48;;;;;;;4.53;0.80;;;13.80;73.80;;;;;;2261396;55;21026;-69
2024/01/25 03:32:15;;;;;;;4.35;0.80;;;13.70;73.70;;;;;;2264572;55;21066;-69
2024/01/25 03:34:41;;;;;;;3.47;0.90;;;13.70;73.70;;;;;;2493791;54;21019;-69
2024/01/25 03:37:08;;;;;;;3.35;0.70;;;13.70;73.70;;;;;;2264048;55;21305;-68
2024/01/25 03:39:34;;;;;;;2.62;0.60;;;13.70;73.80;;;;;;2263677;55;21014;-68
2024/01/25 03:42:00;;;;;;;6.93;0.80;;;13.70;73.90;;;;;;2264411;55;21713;-68
2024/01/25 03:44:28;;;;;;;4.15;0.80;;;13.70;74.00;;;;;;2490278;54;20993;-67
2024/01/25 03:46:55;;;;;;;2.45;0.60;;;13.70;74.00;;;;;;2485048;54;21219;-67
2024/01/25 03:49:22;;;;;;;3.65;0.52;;;13.60;73.80;;;;;;2264515;55;21796;-69
2024/01/25 03:51:50;;;;;;;2.97;0.80;;;13.60;73.90;;;;;;2492937;54;20934;-68
2024/01/25 03:54:16;;;;;;;3.87;0.60;;;13.60;73.90;;;;;;2263833;55;20991;-68
2024/01/25 03:56:43;;;;;;;4.72;0.80;;;13.60;73.90;;;;;;2263941;55;21002;-67
2024/01/25 03:59:12;;;;;;;5.00;0.70;;;13.60;73.90;;;;;;2264617;55;20986;-68
2024/01/25 04:01:45;;;;;;;4.30;0.80;;;13.60;73.90;;;;;;2493672;54;21407;-68
2024/01/25 04:04:12;;;;;;;2.90;0.82;;;13.60;73.60;;;;;;2493464;54;20939;-69
2024/01/25 04:06:45;;;;;;;4.37;0.65;;;13.50;73.70;;;;;;2264196;55;20986;-68
2024/01/25 04:09:11;;;;;;;6.53;0.90;;;13.50;73.70;;;;;;2263935;55;21330;-68
2024/01/25 04:11:38;;;;;;;2.87;1.05;;;13.50;73.70;;;;;;2263605;55;21003;-68
2024/01/25 04:14:05;;;;;;;3.35;0.68;;;13.50;73.90;;;;;;2264634;55;21009;-68
2024/01/25 04:16:32;;;;;;;3.47;1.10;;;13.40;73.70;;;;;;2263614;55;20994;-68
2024/01/25 04:18:58;;;;;;;2.95;0.70;;;13.40;73.80;;;;;;2493332;54;20991;-67
2024/01/25 04:21:25;;;;;;;4.05;0.80;;;13.40;73.80;;;;;;2264425;55;21251;-68
2024/01/25 04:23:52;;;;;;;4.82;1.10;;;13.40;73.80;;;;;;2263890;55;20939;-67
2024/01/25 04:26:22;;;;;;;2.58;0.55;;;13.40;73.80;;;;;;2237251;57;21701;-68
2024/01/25 04:28:48;;;;;;;2.03;0.60;;;13.40;73.80;;;;;;2264157;55;20954;-68
2024/01/25 04:31:14;;;;;;;2.83;0.65;;;13.40;74.00;;;;;;2486079;54;21024;-68
2024/01/25 04:33:41;;;;;;;2.83;0.82;;;13.30;74.00;;;;;;2489363;54;20959;-68
2024/01/25 04:36:09;;;;;;;3.00;0.80;;;13.30;74.00;;;;;;2493697;54;21321;-68
2024/01/25 04:38:36;;;;;;;3.28;0.70;;;13.30;73.90;;;;;;2493113;54;20979;-68
2024/01/25 04:41:02;;;;;;;2.45;0.80;;;13.30;73.90;;;;;;2264161;55;21042;-67
2024/01/25 04:43:28;;;;;;;3.47;0.88;;;13.30;74.00;;;;;;2263987;55;21025;-68
2024/01/25 04:45:55;;;;;;;3.42;0.75;;;13.30;74.00;;;;;;2264118;55;21015;-67
2024/01/25 04:48:21;;;;;;;3.47;0.52;;;13.30;74.10;;;;;;2264274;55;21003;-67
2024/01/25 04:50:48;;;;;;;2.75;0.80;;;13.30;74.10;;;;;;2264133;55;21358;-68
2024/01/25 04:53:19;;;;;;;2.42;0.70;;;13.20;74.10;;;;;;2493772;54;20962;-68
2024/01/25 04:55:45;;;;;;;5.45;1.12;;;13.20;73.90;;;;;;2493460;54;20984;-67
2024/01/25 04:58:13;;;;;;;4.78;1.08;;;13.20;73.90;;;;;;2493305;54;21026;-68
2024/01/25 05:00:41;;;;;;;3.80;0.95;;;13.20;74.00;;;;;;2493545;54;20959;-68
2024/01/25 05:03:08;;;;;;;3.47;1.00;;;13.20;74.00;;;;;;2264191;55;21022;-68
2024/01/25 05:05:34;;;;;;;5.37;1.17;;;13.20;74.10;;;;;;2263826;55;20971;-68
2024/01/25 05:08:00;;;;;;;5.12;1.33;;;13.20;74.20;;;;;;2264482;55;21031;-67
2024/01/25 05:10:28;;;;;;;4.97;1.67;;;13.20;74.20;;;;;;2264436;55;20977;-68
2024/01/25 05:12:54;;;;;;;6.07;2.15;;;13.10;74.00;;;;;;2264354;55;21440;-69
2024/01/25 05:15:21;;;;;;;6.30;2.97;;;13.10;73.90;;;;;;2264278;55;20951;-68
2024/01/25 05:17:48;;;;;;;7.72;2.87;;;13.10;74.00;;;;;;2263850;55;21068;-67
2024/01/25 05:20:17;;;;;;;9.23;3.58;;;13.10;74.00;;;;;;2264523;55;20954;-68
2024/01/25 05:22:45;;;;;;;4.50;1.83;;;13.10;74.00;;;;;;2492818;54;21859;-68
2024/01/25 05:25:12;;;;;;;4.68;1.62;;;13.10;74.00;;;;;;2493753;54;20966;-68
2024/01/25 05:27:38;;;;;;;5.65;1.60;;;13.10;74.00;;;;;;2483539;54;21019;-68
2024/01/25 05:30:07;;;;;;;3.17;1.20;;;13.10;74.00;;;;;;2491399;54;21106;-68
2024/01/25 05:32:34;;;;;;;3.17;0.80;;;13.00;74.60;;;;;;2493184;54;20939;-67
2024/01/25 05:35:00;;;;;;;2.53;0.80;;;13.00;73.90;;;;;;2259130;56;21355;-67
2024/01/25 05:37:27;;;;;;;4.47;0.90;;;13.00;73.90;;;;;;2490242;54;20978;-67
2024/01/25 05:39:53;;;;;;;6.53;1.48;;;13.00;73.90;;;;;;2493707;54;21011;-67
2024/01/25 05:42:21;;;;;;;4.20;1.02;;;13.00;73.90;;;;;;2264170;55;21043;-68
2024/01/25 05:44:47;;;;;;;3.97;1.02;;;12.80;73.70;;;;;;2263619;55;22154;-68
2024/01/25 05:47:14;;;;;;;4.78;1.65;;;13.00;73.80;;;;;;2494020;54;20954;-68
2024/01/25 05:49:40;;;;;;;7.40;1.60;;;13.00;73.80;;;;;;2493868;54;21887;-67
2024/01/25 05:52:07;;;;;;;4.90;1.80;;;13.00;73.80;;;;;;2493627;54;20991;-68
2024/01/25 05:54:33;;;;;;;6.07;2.62;;;13.00;73.80;;;;;;2259073;55;21431;-68
2024/01/25 05:56:59;;;;;;;5.05;2.10;;;12.90;73.80;;;;;;2262039;55;20954;-68
2024/01/25 05:59:25;;;;;;;7.95;3.95;;;12.90;73.70;;;;;;2265004;55;21886;-68
2024/01/25 06:01:52;;;;;;;6.00;3.58;;;12.90;73.50;;;;;;2264635;55;20990;-68
2024/01/25 06:04:19;;;;;;;6.85;2.58;;;12.90;73.50;;;;;;2493881;54;21557;-67
2024/01/25 06:06:45;;;;;;;4.70;2.20;;;12.90;73.50;;;;;;2482648;55;20984;-68
2024/01/25 06:09:14;;;;;;;3.50;1.67;;;12.90;73.60;;;;;;2263115;55;20990;-69
2024/01/25 06:11:41;;;;;;;3.70;1.77;;;12.80;73.60;;;;;;2493183;54;22016;-68
2024/01/25 06:14:08;;;;;;;4.30;1.52;;;12.80;73.70;;;;;;2494244;54;20966;-68
2024/01/25 06:16:34;;;;;;;3.55;1.20;;;12.80;73.70;;;;;;2264715;55;20934;-67
2024/01/25 06:19:05;;;;;;;3.08;1.00;;;12.80;73.80;;;;;;2264393;55;21473;-67
2024/01/25 06:21:33;;;;;;;2.90;0.80;;;12.80;73.70;;;;;;2264766;55;20931;-68
2024/01/25 06:24:00;;;;;;;4.78;1.10;;;12.80;73.80;;;;;;2262845;55;21510;-67
2024/01/25 06:26:26;;;;;;;3.72;0.98;;;12.80;73.80;;;;;;2268567;55;20970;-68
2024/01/25 06:28:53;;;;;;;6.32;1.00;;;12.80;73.80;;;;;;2263044;55;20984;-68
2024/01/25 06:31:22;;;;;;;4.20;1.45;;;12.80;73.80;;;;;;2257947;56;21035;-68
2024/01/25 06:33:50;;;;;;;2.83;0.98;;;12.80;73.80;;;;;;2263723;55;21467;-67
2024/01/25 06:36:20;;;;;;;2.22;0.80;;;12.80;73.90;;;;;;2264410;55;21038;-68
2024/01/25 06:38:49;;;;;;;2.05;0.60;;;12.80;73.80;;;;;;2264602;55;20988;-67
2024/01/25 06:41:16;;;;;;;3.53;0.80;;;12.80;73.90;;;;;;2264751;55;21155;-67
2024/01/25 06:43:43;;;;;;;4.65;1.20;;;12.80;73.90;;;;;;2264577;55;20947;-67
2024/01/25 06:46:09;;;;;;;2.95;1.12;;;12.60;73.60;;;;;;2494510;54;21002;-68
2024/01/25 06:48:36;;;;;;;2.80;1.12;;;12.80;73.90;;;;;;2494106;54;20957;-67
2024/01/25 06:51:02;;;;;;;5.65;0.93;;;12.70;73.80;;;;;;2264976;55;20982;-66
2024/01/25 06:53:29;;;;;;;2.25;0.70;;;12.70;73.80;;;;;;2267534;55;20950;-67
2024/01/25 06:55:55;;;;;;;2.95;1.00;;;12.70;73.80;;;;;;2264149;55;20982;-68
2024/01/25 06:58:24;;;;;;;2.10;0.73;;;12.70;73.80;;;;;;2493402;54;21463;-68
2024/01/25 07:00:50;;;;;;;2.42;0.65;;;12.70;73.70;;;;;;2263900;55;20950;-68
2024/01/25 07:03:17;;;;;;;3.30;0.80;;;12.70;73.80;;;;;;2493642;54;21561;-67
2024/01/25 07:05:43;;;;;;;1.92;0.62;;;12.70;73.80;;;;;;2265368;55;20988;-68
2024/01/25 07:08:13;;;;;;;3.95;1.10;;;12.70;73.90;;;;;;2257915;56;20963;-69
2024/01/25 07:10:40;;;;;;;2.75;0.80;;;12.70;73.90;;;;;;2264721;55;21491;-68
2024/01/25 07:13:09;;;;;;;3.67;1.10;;;12.70;73.90;;;;;;2264892;55;20978;-68
2024/01/25 07:15:36;;;;;;;1.73;0.52;;;12.70;73.90;;;;;;2260246;56;21012;-68
2024/01/25 07:18:03;;;;;;;3.47;0.70;;;12.70;74.00;;;;;;2490448;54;21342;-68
2024/01/25 07:20:29;;;;;;;2.75;0.90;;;12.70;73.90;;;;;;2481312;54;21061;-68
2024/01/25 07:22:56;;;;;;;2.53;1.10;;;12.70;73.90;;;;;;2493401;54;20967;-68
2024/01/25 07:25:23;;;;;;;3.37;1.00;;;12.70;73.90;;;;;;2261823;55;20952;-69
2024/01/25 07:27:52;;;;;;;2.55;1.00;;;12.70;73.90;;;;;;2260252;55;20963;-67
2024/01/25 07:30:19;;;;;;;2.45;1.12;;;12.70;73.80;;;;;;2494091;54;20962;-68
2024/01/25 07:32:46;;;;;;;4.75;1.77;;;12.70;73.90;;;;;;2493938;54;21499;-67
2024/01/25 07:35:12;;;;;;;3.50;1.42;;;12.70;73.90;;;;;;2264790;55;21022;-68
2024/01/25 07:37:39;;;;;;;3.65;1.12;;;12.70;73.80;;;;;;2264262;55;21046;-68
2024/01/25 07:40:06;;;;;;;4.28;0.90;;;12.70;73.90;;;;;;2264398;55;21038;-67
2024/01/25 07:42:32;;;;;;;2.58;0.90;;;12.70;73.80;;;;;;2492626;54;20974;-67
2024/01/25 07:45:02;;;;;;;2.67;0.75;;;12.70;73.80;;;;;;2264193;55;21432;-68
2024/01/25 07:47:28;;;;;;;1.70;0.70;;;12.70;73.90;;;;;;2493748;54;21042;-68
2024/01/25 07:49:56;;;;;;;2.03;0.57;;;12.70;73.90;;;;;;2493949;54;21004;-68
2024/01/25 07:52:23;;;;;;;3.67;0.80;;;12.70;74.00;;;;;;2482983;54;21510;-66
2024/01/25 07:54:50;;;;;;;2.28;0.65;;;12.70;74.10;;;;;;2490420;54;20959;-68
2024/01/25 07:57:18;;;;;;;3.55;1.12;;;12.70;74.10;;;;;;2493313;54;20962;-68
2024/01/25 07:59:45;;;;;;;2.40;0.70;;;12.70;74.20;;;;;;2264798;55;20954;-68
2024/01/25 08:02:12;;;;;;;1.77;0.55;;;12.70;74.10;;;;;;2263957;55;21007;-67
2024/01/25 08:04:38;;;;;;;2.33;0.75;;;12.70;74.20;;;;;;2264051;55;21444;-69
2024/01/25 08:07:04;;;;;;;1.70;0.60;;;12.70;74.20;;;;;;2264420;55;21378;-68
2024/01/25 08:09:33;;;;;;;2.28;0.70;;;12.70;74.20;;;;;;2258170;55;21340;-67
2024/01/25 08:11:59;;;;;;;2.30;0.70;;;12.70;74.20;;;;;;2261881;55;21022;-69
2024/01/25 08:14:25;;;;;;;3.10;0.90;;;12.70;74.20;;;;;;2264610;55;21658;-67
2024/01/25 08:16:52;;;;;;;1.80;0.52;;;12.70;74.30;;;;;;2264307;55;21259;-69
2024/01/25 08:19:19;;;;;;;2.85;1.00;;;12.70;74.20;;;;;;2494365;54;20955;-68
2024/01/25 08:21:48;;;;;;;3.25;0.93;;;12.70;74.40;;;;;;2493903;54;20938;-68
2024/01/25 08:24:16;;;;;;;2.22;0.90;;;12.70;74.40;;;;;;2481110;55;20960;-68
2024/01/25 08:26:42;;;;;;;2.45;0.80;;;12.70;74.50;;;;;;2493844;54;21007;-68
2024/01/25 08:29:09;;;;;;;3.37;0.95;;;12.80;74.50;;;;;;2494438;54;20939;-68
2024/01/25 08:31:35;;;;;;;1.60;0.60;;;12.80;74.40;;;;;;2263509;55;21483;-68
2024/01/25 08:34:01;;;;;;;2.35;0.45;;;12.80;74.40;;;;;;2264453;55;20966;-67
2024/01/25 08:36:29;;;;;;;1.02;0.40;;;12.80;74.40;;;;;;2493664;54;20951;-68
2024/01/25 08:38:56;;;;;;;2.28;0.70;;;12.80;74.50;;;;;;2493754;54;20966;-68
2024/01/25 08:41:25;;;;;;;3.10;0.93;;;12.80;74.60;;;;;;2493574;54;20999;-68
2024/01/25 08:43:54;;;;;;;2.45;0.80;;;12.90;74.70;;;;;;2264737;55;21022;-68
2024/01/25 08:46:20;;;;;;;2.58;0.93;;;12.90;74.70;;;;;;2265375;55;21003;-67
2024/01/25 08:48:46;;;;;;;4.18;1.00;;;12.90;74.70;;;;;;2494176;54;21287;-67
2024/01/25 08:51:13;;;;;;;2.03;0.70;;;12.90;74.70;;;;;;2264436;55;20943;-68
2024/01/25 08:53:39;;;;;;;2.25;0.70;;;12.90;74.70;;;;;;2264106;55;20909;-68
2024/01/25 08:56:06;;;;;;;1.25;0.45;;;12.90;74.70;;;;;;2493517;54;22040;-67
2024/01/25 08:58:32;;;;;;;3.25;0.80;;;13.00;74.80;;;;;;2264079;55;20970;-68
2024/01/25 09:00:59;;;;;;;2.15;0.68;;;13.00;74.70;;;;;;2267760;55;21782;-68
2024/01/25 09:03:26;;;;;;;1.50;0.57;;;13.00;74.70;;;;;;2253894;55;20951;-68
2024/01/25 09:05:53;;;;;;;2.42;0.70;;;13.00;74.70;;;;;;2264570;55;20942;-67
2024/01/25 09:08:20;;;;;;;1.70;0.60;;;13.00;74.70;;;;;;2264592;55;21034;-68
2024/01/25 09:10:46;;;;;;;2.12;0.60;;;13.00;74.80;;;;;;2235324;57;21926;-68
2024/01/25 09:13:13;;;;;;;0.98;0.40;;;13.10;74.90;;;;;;2265285;55;21435;-68
2024/01/25 09:15:39;;;;;;;2.28;0.50;;;13.10;75.60;;;;;;2263653;55;20971;-67
2024/01/25 09:18:09;;;;;;;2.08;0.60;;;13.10;75.00;;;;;;2263943;55;21006;-66
2024/01/25 09:20:35;;;;;;;1.75;0.60;;;13.10;74.90;;;;;;2493035;54;21006;-69
2024/01/25 09:23:02;;;;;;;1.23;0.40;;;13.10;75.00;;;;;;2494206;54;20995;-69
2024/01/25 09:25:28;;;;;;;1.77;0.57;;;13.20;75.10;;;;;;2264599;55;20943;-69
2024/01/25 09:27:56;;;;;;;4.03;1.33;;;13.20;75.10;;;;;;2264662;55;20987;-68
2024/01/25 09:30:23;;;;;;;2.53;0.93;;;13.20;75.10;;;;;;2264924;55;20982;-67
2024/01/25 09:32:50;;;;;;;2.60;0.85;;;13.30;75.20;;;;;;2264826;55;21018;-68
2024/01/25 09:35:17;;;;;;;1.77;0.70;;;13.30;75.10;;;;;;2265191;55;21226;-69
2024/01/25 09:37:44;;;;;;;1.92;0.70;;;13.30;75.10;;;;;;2260248;55;21104;-67
2024/01/25 09:40:12;;;;;;;3.75;0.90;;;13.30;75.00;;;;;;2261203;55;20950;-67
2024/01/25 09:42:38;;;;;;;2.60;0.82;;;13.30;75.00;;;;;;2493957;54;21210;-68
2024/01/25 09:45:07;;;;;;;5.10;2.12;;;13.40;75.10;;;;;;2494648;54;20945;-67
2024/01/25 09:47:33;;;;;;;4.37;2.47;;;13.40;75.10;;;;;;2493411;54;21781;-68
2024/01/25 09:50:01;;;;;;;4.80;2.42;;;13.40;75.20;;;;;;2265095;55;21006;-68
2024/01/25 09:52:27;;;;;;;3.80;2.30;;;13.40;75.10;;;;;;2493904;54;20954;-68
2024/01/25 09:54:55;;;;;;;4.50;2.20;;;13.50;75.30;;;;;;2494214;54;21318;-68
2024/01/25 09:57:24;;;;;;;4.50;2.53;;;13.50;75.30;;;;;;2237653;55;21018;-68
2024/01/25 09:59:50;;;;;;;7.85;4.07;;;13.50;75.20;;;;;;2492525;54;20947;-68
2024/01/25 10:02:16;;;;;;;5.37;2.92;;;13.50;75.90;;;;;;2493800;54;20942;-68
2024/01/25 10:04:53;;;;;;;4.35;2.30;;;13.60;75.30;;;;;;2490710;54;20976;-70
2024/01/25 10:07:42;;;;;;;8.25;4.57;;;13.60;75.20;;;;;;2483888;54;20923;-68
2024/01/25 10:10:08;;;;;;;6.22;2.95;;;13.70;74.90;;;;;;2494146;54;21022;-67
2024/01/25 10:12:36;;;;;;;15.55;7.72;;;13.70;75.30;;;;;;2263906;55;20975;-68
2024/01/25 10:15:07;;;;;;;18.08;10.10;;;13.70;75.80;;;;;;2493931;54;20990;-67
2024/01/25 10:17:33;;;;;;;16.65;9.55;;;13.70;74.90;;;;;;2259257;55;21751;-69
2024/01/25 10:20:10;;;;;;;11.93;7.18;;;13.70;74.80;;;;;;2265026;55;20934;-69
2024/01/25 10:22:37;;;;;;;8.98;4.97;;;13.70;74.70;;;;;;2265366;55;20970;-69
2024/01/25 10:25:04;;;;;;;9.38;5.85;;;13.80;74.80;;;;;;2494761;54;21392;-69
2024/01/25 10:27:31;;;;;;;8.52;5.18;;;13.80;74.70;;;;;;2264712;55;21435;-68
2024/01/25 10:29:59;;;;;;;6.45;3.12;;;13.80;74.70;;;;;;2264170;55;20994;-68
2024/01/25 10:32:25;;;;;;;5.85;3.03;;;13.80;74.80;;;;;;2264901;55;20963;-67
2024/01/25 10:34:52;;;;;;;5.97;3.45;;;13.80;74.70;;;;;;2264535;55;21037;-70
2024/01/25 10:37:21;;;;;;;4.95;2.80;;;13.80;74.60;;;;;;2494421;54;21024;-69
2024/01/25 10:39:47;;;;;;;3.67;1.60;;;13.80;74.50;;;;;;2494129;54;21732;-68
2024/01/25 10:42:13;;;;;;;5.25;1.70;;;13.80;74.40;;;;;;2494102;54;20959;-69
2024/01/25 10:44:40;;;;;;;6.03;3.53;;;13.80;74.40;;;;;;2494157;54;20983;-69
2024/01/25 10:47:07;;;;;;;5.70;3.00;;;13.80;74.50;;;;;;2491339;54;21283;-69
2024/01/25 10:49:34;;;;;;;5.72;2.87;;;13.80;74.40;;;;;;2485002;54;21336;-69
2024/01/25 10:52:00;;;;;;;5.47;2.80;;;13.80;74.30;;;;;;2265014;55;20947;-68
2024/01/25 10:54:27;;;;;;;6.05;3.37;;;13.90;74.50;;;;;;2494331;54;21466;-67
2024/01/25 10:56:53;;;;;;;4.10;2.20;;;13.70;74.30;;;;;;2493762;54;20994;-68
2024/01/25 10:59:19;;;;;;;3.17;1.50;;;13.90;74.50;;;;;;2494331;54;22139;-70
2024/01/25 11:01:49;;;;;;;4.22;1.42;;;13.90;74.50;;;;;;2492813;54;21006;-68
2024/01/25 11:04:15;;;;;;;2.17;0.80;;;13.90;74.40;;;;;;2493384;54;20970;-68
2024/01/25 11:06:43;;;;;;;1.83;0.60;;;13.90;74.50;;;;;;2492914;54;20978;-69
2024/01/25 11:09:10;;;;;;;3.40;1.08;;;13.90;74.60;;;;;;2494180;54;20927;-69
2024/01/25 11:11:38;;;;;;;4.12;1.17;;;13.90;74.60;;;;;;2263204;55;20995;-70
2024/01/25 11:14:10;;;;;;;4.10;1.90;;;14.00;74.80;;;;;;2264517;55;20959;-68
2024/01/25 11:16:41;;;;;;;5.18;2.15;;;14.00;74.80;;;;;;2265070;55;20963;-68
2024/01/25 11:19:16;;;;;;;3.60;1.85;;;14.00;74.90;;;;;;2264952;55;20962;-69
2024/01/25 11:21:43;;;;;;;3.22;1.50;;;14.00;74.70;;;;;;2493460;54;20958;-68
2024/01/25 11:24:22;;;;;;;3.70;1.15;;;14.00;75.00;;;;;;2494840;54;20978;-69
2024/01/25 11:26:51;;;;;;;1.55;0.77;;;14.10;74.90;;;;;;2263862;55;20971;-67
2024/01/25 11:29:20;;;;;;;1.58;0.70;;;14.10;75.10;;;;;;2265126;55;21174;-68
2024/01/25 11:31:47;;;;;;;2.90;0.80;;;14.10;75.10;;;;;;2493870;54;21046;-68
2024/01/25 11:34:15;;;;;;;1.92;0.65;;;14.20;75.20;;;;;;2264797;55;21294;-68
2024/01/25 11:36:42;;;;;;;3.67;1.08;;;14.20;75.30;;;;;;2493432;54;20967;-69
2024/01/25 11:39:15;;;;;;;4.65;1.75;;;14.20;75.30;;;;;;2267919;55;21506;-67
2024/01/25 11:41:44;;;;;;;6.07;1.70;;;14.30;75.40;;;;;;2264557;55;20963;-68
2024/01/25 11:44:11;;;;;;;4.30;1.20;;;14.30;75.40;;;;;;2494131;54;21732;-69
2024/01/25 11:46:37;;;;;;;4.10;1.10;;;14.30;75.50;;;;;;2264561;55;20959;-68
2024/01/25 11:49:03;;;;;;;2.92;1.15;;;14.30;75.50;;;;;;2494565;54;20915;-67
2024/01/25 11:51:30;;;;;;;3.33;1.02;;;14.40;75.60;;;;;;2264222;55;21034;-67
2024/01/25 11:53:56;;;;;;;2.85;0.93;;;14.40;75.60;;;;;;2493234;54;20939;-67
2024/01/25 11:56:27;;;;;;;3.33;0.93;;;14.50;75.50;;;;;;2493113;54;20923;-68
2024/01/25 11:58:56;;;;;;;2.03;0.70;;;14.50;75.60;;;;;;2493465;54;20959;-68
2024/01/25 12:01:27;;;;;;;1.80;0.65;;;14.50;75.20;;;;;;2264962;55;20910;-68
2024/01/25 12:03:53;;;;;;;1.25;0.70;;;14.50;74.80;;;;;;2259806;55;21055;-69
2024/01/25 12:06:20;;;;;;;1.55;0.50;;;14.60;74.80;;;;;;2260580;55;21026;-68
2024/01/25 12:08:51;;;;;;;1.45;0.50;;;14.60;74.60;;;;;;2493467;54;20965;-68
2024/01/25 12:11:22;;;;;;;1.12;0.60;;;14.60;74.40;;;;;;2479019;54;21017;-68
2024/01/25 12:13:49;;;;;;;2.60;0.70;;;14.60;74.40;;;;;;2490861;54;21012;-68
2024/01/25 12:16:16;;;;;;;1.85;0.70;;;14.60;74.50;;;;;;2493965;54;21001;-69
2024/01/25 12:18:43;;;;;;;1.73;0.82;;;14.60;74.50;;;;;;2264389;55;21900;-67
2024/01/25 12:21:09;;;;;;;1.37;0.60;;;14.60;74.50;;;;;;2264654;55;20954;-68
2024/01/25 12:23:37;;;;;;;1.40;0.45;;;14.60;74.60;;;;;;2260606;55;21413;-67
2024/01/25 12:26:04;;;;;;;2.10;0.70;;;14.60;74.60;;;;;;2264535;55;20964;-67
2024/01/25 12:28:34;;;;;;;2.65;1.12;;;14.60;74.60;;;;;;2264831;55;20958;-67
2024/01/25 12:31:04;;;;;;;2.65;1.00;;;14.60;74.60;;;;;;2235815;57;20998;-67
2024/01/25 12:33:30;;;;;;;2.40;1.10;;;14.60;74.60;;;;;;2263081;55;21542;-69
2024/01/25 12:36:01;;;;;;;2.08;0.75;;;14.60;74.50;;;;;;2262603;55;20975;-68
2024/01/25 12:38:29;;;;;;;2.40;0.62;;;14.70;74.70;;;;;;2265526;55;21079;-68
2024/01/25 12:40:55;;;;;;;1.98;0.62;;;14.60;74.50;;;;;;2256902;55;21047;-69
2024/01/25 12:43:22;;;;;;;1.60;0.60;;;14.70;74.70;;;;;;2264899;55;20966;-69
2024/01/25 12:45:50;;;;;;;3.12;0.90;;;14.60;74.70;;;;;;2267166;55;20967;-70